createdAt,value
2022-11-28T00:01:25.406Z,-2.10
2022-11-28T00:03:52.673Z,-2.00
2022-11-28T00:06:19.916Z,-2.00
2022-11-28T00:08:47.095Z,-2.10
2022-11-28T00:11:15.712Z,-2.10
2022-11-28T00:13:42.901Z,-2.10
2022-11-28T00:16:13.788Z,-2.10
2022-11-28T00:18:40.763Z,-2.10
2022-11-28T00:21:11.417Z,-2.10
2022-11-28T00:23:38.769Z,-2.10
2022-11-28T00:26:10.277Z,-2.10
2022-11-28T00:28:37.736Z,-2.10
2022-11-28T00:31:05.163Z,-2.00
2022-11-28T00:33:33.528Z,-2.10
2022-11-28T00:36:02.010Z,-2.10
2022-11-28T00:38:29.720Z,-2.00
2022-11-28T00:41:09.930Z,-2.10
2022-11-28T00:43:37.620Z,-2.10
2022-11-28T00:46:05.012Z,-2.10
2022-11-28T00:48:33.554Z,-2.10
2022-11-28T00:51:13.168Z,-2.10
2022-11-28T00:53:42.579Z,-2.10
2022-11-28T00:56:11.823Z,-2.20
2022-11-28T00:58:39.665Z,-2.20
2022-11-28T01:01:17.081Z,-2.20
2022-11-28T01:03:44.699Z,-2.10
2022-11-28T01:06:12.946Z,-2.20
2022-11-28T01:08:39.815Z,-2.10
2022-11-28T01:11:12.871Z,-2.10
2022-11-28T01:13:40.714Z,-2.10
2022-11-28T01:16:08.634Z,-2.10
2022-11-28T01:18:36.013Z,-2.10
2022-11-28T01:21:03.357Z,-2.00
2022-11-28T01:23:30.386Z,-2.10
2022-11-28T01:25:57.325Z,-2.00
2022-11-28T01:28:24.289Z,-2.00
2022-11-28T01:30:51.225Z,-2.00
2022-11-28T01:33:18.059Z,-2.10
2022-11-28T01:35:57.950Z,-2.10
2022-11-28T01:38:25.183Z,-2.10
2022-11-28T01:40:52.243Z,-2.10
2022-11-28T01:43:19.590Z,-2.10
2022-11-28T01:45:46.720Z,-2.20
2022-11-28T01:48:18.282Z,-2.20
2022-11-28T01:50:47.877Z,-2.20
2022-11-28T01:53:15.101Z,-2.20
2022-11-28T01:56:06.036Z,-2.20
2022-11-28T01:58:36.674Z,-2.10
2022-11-28T02:01:04.645Z,-2.10
2022-11-28T02:03:45.642Z,-2.10
2022-11-28T02:06:15.281Z,-2.10
2022-11-28T02:08:42.549Z,-2.10
2022-11-28T02:11:18.422Z,-2.10
2022-11-28T02:14:00.008Z,-2.00
2022-11-28T02:17:02.407Z,-2.00
2022-11-28T02:20:10.154Z,-1.90
2022-11-28T02:22:39.761Z,-2.00
2022-11-28T02:25:44.279Z,-1.90
2022-11-28T02:28:19.792Z,-2.00
2022-11-28T02:31:05.158Z,-2.00
2022-11-28T02:33:41.290Z,-2.00
2022-11-28T02:36:27.007Z,-1.90
2022-11-28T02:39:09.580Z,-2.00
2022-11-28T02:41:45.650Z,-2.00
2022-11-28T02:44:24.214Z,-2.00
2022-11-28T02:47:14.181Z,-2.00
2022-11-28T02:49:46.781Z,-2.00
2022-11-28T02:52:18.434Z,-1.90
2022-11-28T02:54:46.679Z,-1.90
2022-11-28T02:57:13.568Z,-1.90
2022-11-28T02:59:43.262Z,-1.90
2022-11-28T03:02:29.274Z,-1.90
2022-11-28T03:05:05.490Z,-1.90
2022-11-28T03:08:02.926Z,-1.90
2022-11-28T03:10:34.770Z,-1.90
2022-11-28T03:13:31.131Z,-1.80
2022-11-28T03:16:28.607Z,-1.80
2022-11-28T03:19:16.604Z,-1.80
2022-11-28T03:21:49.083Z,-1.70
2022-11-28T03:24:25.159Z,-1.70
2022-11-28T03:27:04.514Z,-1.80
2022-11-28T03:30:02.652Z,-1.70
2022-11-28T03:32:37.167Z,-1.70
2022-11-28T03:35:14.042Z,-1.70
2022-11-28T03:37:55.716Z,-1.70
2022-11-28T03:40:28.408Z,-1.70
2022-11-28T03:43:04.099Z,-1.70
2022-11-28T03:45:39.968Z,-1.70
2022-11-28T03:48:23.806Z,-1.70
2022-11-28T03:51:12.404Z,-1.70
2022-11-28T03:53:52.757Z,-1.70
2022-11-28T03:56:36.938Z,-1.70
2022-11-28T03:59:28.962Z,-1.70
2022-11-28T04:02:16.044Z,-1.90
2022-11-28T04:05:00.849Z,-1.80
2022-11-28T04:07:45.291Z,-1.80
2022-11-28T04:10:21.253Z,-1.70
2022-11-28T04:12:51.730Z,-1.80
2022-11-28T04:15:31.874Z,-1.80
2022-11-28T04:18:25.288Z,-1.80
2022-11-28T04:20:55.924Z,-1.80
2022-11-28T04:23:24.154Z,-1.80
2022-11-28T04:26:14.668Z,-1.80
2022-11-28T04:28:42.957Z,-1.80
2022-11-28T04:31:10.684Z,-1.80
2022-11-28T04:33:42.581Z,-1.80
2022-11-28T04:36:12.044Z,-1.70
2022-11-28T04:38:40.897Z,-1.70
2022-11-28T04:41:42.900Z,-1.70
2022-11-28T04:44:12.502Z,-1.70
2022-11-28T04:46:48.482Z,-1.70
2022-11-28T04:49:15.577Z,-1.70
2022-11-28T04:52:10.170Z,-1.70
2022-11-28T04:54:58.715Z,-1.60
2022-11-28T04:57:51.702Z,-1.60
2022-11-28T05:00:22.451Z,-1.50
2022-11-28T05:02:53.346Z,-1.50
2022-11-28T05:05:26.122Z,-1.60
2022-11-28T05:07:53.450Z,-1.60
2022-11-28T05:10:20.600Z,-1.60
2022-11-28T05:12:47.555Z,-1.50
2022-11-28T05:15:19.224Z,-1.50
2022-11-28T05:17:47.186Z,-1.50
2022-11-28T05:20:14.571Z,-1.40
2022-11-28T05:22:41.436Z,-1.40
2022-11-28T05:25:08.983Z,-1.40
2022-11-28T05:27:36.151Z,-1.40
2022-11-28T05:30:04.688Z,-1.30
2022-11-28T05:32:32.329Z,-1.30
2022-11-28T05:34:59.454Z,-1.30
2022-11-28T05:37:26.491Z,-1.30
2022-11-28T05:39:53.970Z,-1.30
2022-11-28T05:42:21.111Z,-1.30
2022-11-28T05:44:48.353Z,-1.30
2022-11-28T05:47:18.552Z,-1.30
2022-11-28T05:49:47.520Z,-1.30
2022-11-28T05:52:14.473Z,-1.30
2022-11-28T05:54:41.792Z,-1.30
2022-11-28T05:57:08.781Z,-1.30
2022-11-28T05:59:36.038Z,-1.30
2022-11-28T06:02:03.065Z,-1.30
2022-11-28T06:04:29.960Z,-1.30
2022-11-28T06:06:56.920Z,-1.30
2022-11-28T06:09:26.051Z,-1.30
2022-11-28T06:11:53.270Z,-1.30
2022-11-28T06:14:20.188Z,-1.30
2022-11-28T06:16:47.104Z,-1.30
2022-11-28T06:19:14.413Z,-1.20
2022-11-28T06:21:41.825Z,-1.20
2022-11-28T06:24:10.786Z,-1.20
2022-11-28T06:26:39.384Z,-1.20
2022-11-28T06:29:06.314Z,-1.20
2022-11-28T06:31:33.495Z,-1.20
2022-11-28T06:34:00.456Z,-1.20
2022-11-28T06:36:27.711Z,-1.20
2022-11-28T06:38:54.700Z,-1.10
2022-11-28T06:41:23.144Z,-1.10
2022-11-28T06:43:50.408Z,-1.10
2022-11-28T06:46:19.688Z,-1.10
2022-11-28T06:48:50.639Z,-1.00
2022-11-28T06:51:18.392Z,-1.00
2022-11-28T06:53:45.286Z,-1.00
2022-11-28T06:56:19.382Z,-1.00
2022-11-28T06:58:47.244Z,-0.90
2022-11-28T07:01:20.410Z,-0.90
2022-11-28T07:03:48.573Z,-0.90
2022-11-28T07:06:17.584Z,-0.90
2022-11-28T07:08:44.880Z,-0.80
2022-11-28T07:11:16.178Z,-0.90
2022-11-28T07:13:45.903Z,-0.90
2022-11-28T07:16:19.382Z,-0.80
2022-11-28T07:18:46.968Z,-0.70
2022-11-28T07:21:15.676Z,-0.70
2022-11-28T07:23:44.966Z,-0.70
2022-11-28T07:26:14.871Z,-0.70
2022-11-28T07:28:43.384Z,-0.70
2022-11-28T07:31:19.629Z,-0.70
2022-11-28T07:33:48.676Z,-0.60
2022-11-28T07:36:21.659Z,-0.60
2022-11-28T07:38:50.430Z,-0.50
2022-11-28T07:41:18.539Z,-0.50
2022-11-28T07:43:48.330Z,-0.40
2022-11-28T07:46:18.900Z,-0.50
2022-11-28T07:48:47.758Z,-0.40
2022-11-28T07:51:17.679Z,-0.40
2022-11-28T07:53:44.445Z,-0.40
2022-11-28T07:56:16.255Z,-0.30
2022-11-28T07:58:45.432Z,-0.30
2022-11-28T08:01:23.542Z,-0.30
2022-11-28T08:03:53.269Z,-0.30
2022-11-28T08:06:22.965Z,-0.20
2022-11-28T08:08:50.731Z,-0.20
2022-11-28T08:11:19.176Z,-0.10
2022-11-28T08:13:46.880Z,-0.10
2022-11-28T08:16:16.797Z,-0.10
2022-11-28T08:18:43.941Z,-0.10
2022-11-28T08:21:14.258Z,-0.10
2022-11-28T08:23:42.002Z,0.00
2022-11-28T08:26:11.049Z,-0.10
2022-11-28T08:28:37.975Z,-0.10
2022-11-28T08:31:12.077Z,-0.10
2022-11-28T08:33:39.762Z,0.00
2022-11-28T08:36:08.313Z,-0.10
2022-11-28T08:38:35.513Z,-0.10
2022-11-28T08:41:20.667Z,-0.10
2022-11-28T08:43:48.625Z,0.00
2022-11-28T08:46:18.532Z,0.00
2022-11-28T08:48:46.147Z,-0.10
2022-11-28T08:51:14.562Z,0.00
2022-11-28T08:53:44.001Z,0.00
2022-11-28T08:56:14.300Z,0.00
2022-11-28T08:58:41.346Z,0.00
2022-11-28T09:01:23.279Z,0.10
2022-11-28T09:03:51.452Z,0.10
2022-11-28T09:06:19.133Z,0.10
2022-11-28T09:08:46.170Z,0.10
2022-11-28T09:11:15.742Z,0.10
2022-11-28T09:13:43.041Z,0.10
2022-11-28T09:16:10.696Z,0.10
2022-11-28T09:18:38.076Z,0.10
2022-11-28T09:21:10.819Z,0.20
2022-11-28T09:23:39.347Z,0.20
2022-11-28T09:26:16.774Z,0.20
2022-11-28T09:28:44.619Z,0.20
2022-11-28T09:31:12.935Z,0.20
2022-11-28T09:33:40.010Z,0.30
2022-11-28T09:36:15.950Z,0.20
2022-11-28T09:38:43.176Z,0.20
2022-11-28T09:41:28.379Z,0.20
2022-11-28T09:44:17.660Z,0.20
2022-11-28T09:46:46.502Z,0.30
2022-11-28T09:49:40.280Z,0.40
2022-11-28T09:52:23.847Z,0.40
2022-11-28T09:55:24.357Z,0.40
2022-11-28T09:57:53.611Z,0.40
2022-11-28T10:00:24.025Z,0.40
2022-11-28T10:03:00.020Z,0.40
2022-11-28T10:05:45.172Z,0.40
2022-11-28T10:08:14.888Z,0.40
2022-11-28T10:10:41.847Z,0.40
2022-11-28T10:13:32.635Z,0.40
2022-11-28T10:16:28.779Z,0.40
2022-11-28T10:19:05.869Z,0.40
2022-11-28T10:21:42.522Z,0.50
2022-11-28T10:24:20.637Z,0.50
2022-11-28T10:26:51.628Z,0.50
2022-11-28T10:29:27.998Z,0.60
2022-11-28T10:31:58.652Z,0.60
2022-11-28T10:34:39.321Z,0.60
2022-11-28T10:37:08.455Z,0.60
2022-11-28T10:39:38.054Z,0.60
2022-11-28T10:42:20.100Z,0.60
2022-11-28T10:44:52.941Z,0.60
2022-11-28T10:47:25.655Z,0.60
2022-11-28T10:50:14.867Z,0.60
2022-11-28T10:52:47.870Z,0.60
2022-11-28T10:55:30.899Z,0.70
2022-11-28T10:58:22.457Z,0.60
2022-11-28T11:00:52.977Z,0.60
2022-11-28T11:03:21.042Z,0.60
2022-11-28T11:05:48.029Z,0.60
2022-11-28T11:08:29.746Z,0.60
2022-11-28T11:11:00.455Z,0.60
2022-11-28T11:13:29.803Z,0.70
2022-11-28T11:16:01.390Z,0.70
2022-11-28T11:18:32.012Z,0.70
2022-11-28T11:21:21.491Z,0.70
2022-11-28T11:23:49.943Z,0.70
2022-11-28T11:26:27.400Z,0.70
2022-11-28T11:28:55.257Z,0.70
2022-11-28T11:31:27.055Z,0.70
2022-11-28T11:34:06.092Z,0.80
2022-11-28T11:36:35.415Z,0.80
2022-11-28T11:39:23.904Z,0.80
2022-11-28T11:42:02.794Z,0.80
2022-11-28T11:44:37.125Z,0.70
2022-11-28T11:47:10.731Z,0.70
2022-11-28T11:49:43.895Z,0.70
2022-11-28T11:52:22.848Z,0.70
2022-11-28T11:54:58.531Z,0.70
2022-11-28T11:57:33.962Z,0.70
2022-11-28T12:00:05.508Z,0.70
2022-11-28T12:02:46.755Z,0.60
2022-11-28T12:05:23.868Z,0.60
2022-11-28T12:08:14.656Z,0.60
2022-11-28T12:10:48.553Z,0.50
2022-11-28T12:13:24.203Z,0.50
2022-11-28T12:15:54.148Z,0.50
2022-11-28T12:18:30.046Z,0.50
2022-11-28T12:21:21.296Z,0.50
2022-11-28T12:23:56.316Z,0.50
2022-11-28T12:26:36.073Z,0.40
2022-11-28T12:29:12.345Z,0.40
2022-11-28T12:31:52.853Z,0.40
2022-11-28T12:35:04.873Z,0.30
2022-11-28T12:37:54.733Z,0.30
2022-11-28T12:40:40.122Z,0.40
2022-11-28T12:43:31.414Z,0.40
2022-11-28T12:46:12.830Z,0.30
2022-11-28T12:48:53.934Z,0.30
2022-11-28T12:51:31.787Z,0.30
2022-11-28T12:54:20.250Z,0.30
2022-11-28T12:57:15.159Z,0.30
2022-11-28T13:00:09.579Z,0.30
2022-11-28T13:03:15.297Z,0.30
2022-11-28T13:06:19.546Z,0.20
2022-11-28T13:09:01.153Z,0.30
2022-11-28T13:11:56.712Z,0.40
2022-11-28T13:14:29.520Z,0.20
2022-11-28T13:17:05.897Z,0.20
2022-11-28T13:19:53.996Z,0.20
2022-11-28T13:22:58.553Z,0.20
2022-11-28T13:25:36.525Z,0.20
2022-11-28T13:28:07.807Z,0.20
2022-11-28T13:30:44.543Z,0.20
2022-11-28T13:33:26.161Z,0.20
2022-11-28T13:35:54.070Z,0.20
2022-11-28T13:38:54.436Z,0.20
2022-11-28T13:42:14.023Z,0.10
2022-11-28T13:45:00.586Z,0.20
2022-11-28T13:47:35.420Z,0.10
2022-11-28T13:50:38.569Z,0.20
2022-11-28T13:53:10.349Z,0.20
2022-11-28T13:55:39.154Z,0.20
2022-11-28T13:58:16.434Z,0.20
2022-11-28T14:00:51.843Z,0.20
2022-11-28T14:03:20.962Z,0.20
2022-11-28T14:05:55.480Z,0.20
2022-11-28T14:08:34.462Z,0.20
2022-11-28T14:11:13.851Z,0.20
2022-11-28T14:13:48.351Z,0.20
2022-11-28T14:17:05.808Z,0.20
2022-11-28T14:19:51.347Z,0.20
2022-11-28T14:22:33.931Z,0.30
2022-11-28T14:25:14.549Z,0.30
2022-11-28T14:27:57.893Z,0.30
2022-11-28T14:30:38.931Z,0.30
2022-11-28T14:33:30.693Z,0.30
2022-11-28T14:35:58.343Z,0.30
2022-11-28T14:38:30.931Z,0.30
2022-11-28T14:41:02.259Z,0.30
2022-11-28T14:43:37.279Z,0.30
2022-11-28T14:46:16.485Z,0.30
2022-11-28T14:48:59.533Z,0.40
2022-11-28T14:52:30.836Z,0.30
2022-11-28T14:54:54.286Z,0.30
2022-11-28T14:57:32.613Z,0.30
2022-11-28T15:00:04.899Z,0.30
2022-11-28T15:02:35.008Z,0.30
2022-11-28T15:05:33.578Z,0.30
2022-11-28T15:08:26.172Z,0.30
2022-11-28T15:11:25.582Z,0.30
2022-11-28T15:13:58.836Z,0.30
2022-11-28T15:16:30.808Z,0.30
2022-11-28T15:19:13.762Z,0.30
2022-11-28T15:21:45.892Z,0.30
2022-11-28T15:24:26.282Z,0.30
2022-11-28T15:26:57.547Z,0.30
2022-11-28T15:29:27.577Z,0.30
2022-11-28T15:31:56.428Z,0.30
2022-11-28T15:34:37.823Z,0.30
2022-11-28T15:37:16.902Z,0.30
2022-11-28T15:39:47.927Z,0.30
2022-11-28T15:42:32.270Z,0.30
2022-11-28T15:45:37.317Z,0.30
2022-11-28T15:48:07.402Z,0.30
2022-11-28T15:50:34.687Z,0.30
2022-11-28T15:53:20.807Z,0.40
2022-11-28T15:55:48.061Z,0.40
2022-11-28T15:58:28.754Z,0.40
2022-11-28T16:01:21.856Z,0.40
2022-11-28T16:04:06.660Z,0.40
2022-11-28T16:06:36.922Z,0.50
2022-11-28T16:09:19.063Z,0.50
2022-11-28T16:11:52.133Z,0.50
2022-11-28T16:14:25.482Z,0.50
2022-11-28T16:16:52.789Z,0.40
2022-11-28T16:19:29.842Z,0.50
2022-11-28T16:22:11.473Z,0.50
2022-11-28T16:24:56.524Z,0.50
2022-11-28T16:27:38.271Z,0.50
2022-11-28T16:30:23.831Z,0.50
2022-11-28T16:32:52.989Z,0.60
2022-11-28T16:35:29.198Z,0.60
